Time;durP1;ratioP1;P1;durP2;ratioP2;P2;SDS_P1;SDS_P2;PMS_P1;PMS_P2;Temp;Humidity;BMP_temperature;BMP_pressure;BME280_temperature;BME280_humidity;BME280_pressure;Samples;Min_cycle;Max_cycle;Signal;HPM_P1;HPM_P2
2022/05/22 00:00:10;;;;;;;;;9.33;7.00;;;;;18.63;58.18;101168.47;5022329;28;45438;-58
2022/05/22 00:02:35;;;;;;;;;8.00;8.00;;;;;18.68;58.22;101157.34;5033609;28;45752;-57
2022/05/22 00:05:02;;;;;;;;;8.00;8.00;;;;;18.68;58.04;101146.56;5031969;28;45494;-54
2022/05/22 00:07:27;;;;;;;;;5.33;5.00;;;;;18.60;58.02;101140.91;5029221;28;46134;-58
2022/05/22 00:09:52;;;;;;;;;7.00;7.00;;;;;18.57;58.58;101144.72;5034589;28;45889;-56
2022/05/22 00:12:18;;;;;;;;;6.00;6.00;;;;;18.54;58.70;101137.72;5020687;28;45450;-57
2022/05/22 00:14:44;;;;;;;;;6.33;5.00;;;;;18.46;58.74;101144.72;5015240;28;45490;-58
2022/05/22 00:17:09;;;;;;;;;9.67;7.00;;;;;18.47;58.44;101151.81;5019691;28;45426;-57
2022/05/22 00:19:36;;;;;;;;;6.33;6.33;;;;;18.51;58.90;101147.91;5029449;28;45369;-59
2022/05/22 00:22:02;;;;;;;;;5.67;5.67;;;;;18.53;58.50;101156.72;5034719;28;45462;-57
2022/05/22 00:24:30;;;;;;;;;11.33;7.00;;;;;18.49;58.59;101148.03;5036576;28;47088;-50
2022/05/22 00:26:56;;;;;;;;;8.00;8.00;;;;;18.48;58.86;101148.13;5028969;28;45304;-53
2022/05/22 00:29:22;;;;;;;;;8.00;6.67;;;;;18.45;58.99;101145.69;5018196;28;45419;-62
2022/05/22 00:31:48;;;;;;;;;6.00;6.00;;;;;18.44;59.19;101135.91;5022901;28;45190;-57
2022/05/22 00:34:13;;;;;;;;;11.00;6.67;;;;;18.45;59.15;101145.69;5036538;28;45540;-59
2022/05/22 00:36:39;;;;;;;;;8.00;8.00;;;;;18.39;58.93;101143.50;5035675;28;45637;-56
2022/05/22 00:39:05;;;;;;;;;8.00;5.00;;;;;18.43;59.28;101145.81;5033088;28;45430;-61
2022/05/22 00:41:32;;;;;;;;;10.33;7.33;;;;;18.45;59.06;101138.47;5018873;28;45527;-55
2022/05/22 00:43:59;;;;;;;;;6.67;6.67;;;;;18.36;59.75;101141.91;5018937;28;47031;-55
2022/05/22 00:46:25;;;;;;;;;6.00;6.00;;;;;18.24;59.68;101134.81;5018454;28;45244;-54
2022/05/22 00:49:07;;;;;;;;;7.67;6.33;;;;;18.33;59.46;101125.13;5030253;28;45201;-63
2022/05/22 00:51:58;;;;;;;;;10.00;8.67;;;;;18.34;59.28;101124.16;5018127;28;45516;-59
2022/05/22 00:54:33;;;;;;;;;6.00;6.00;;;;;18.35;58.95;101109.69;5020702;28;46311;-56
2022/05/22 00:57:06;;;;;;;;;6.00;6.00;;;;;18.32;59.05;101104.56;5031158;28;45333;-66
2022/05/22 00:59:39;;;;;;;;;7.67;6.67;;;;;18.24;59.66;101103.38;5036241;28;45300;-55
2022/05/22 01:02:05;;;;;;;;;7.33;7.33;;;;;18.22;59.68;101099.06;5037419;28;45317;-59
2022/05/22 01:04:33;;;;;;;;;9.00;7.33;;;;;18.23;59.40;101101.66;5036890;28;46120;-58
2022/05/22 01:07:01;;;;;;;;;9.00;7.67;;;;;18.18;59.77;101098.47;5036666;28;45631;-60
2022/05/22 01:09:26;;;;;;;;;7.33;6.67;;;;;18.17;59.72;101096.75;5035895;28;45346;-56
2022/05/22 01:11:58;;;;;;;;;6.67;5.00;;;;;18.18;59.68;101093.06;5038379;28;45441;-56
2022/05/22 01:14:26;;;;;;;;;7.00;7.00;;;;;18.20;59.40;101088.41;5027608;28;46086;-54
2022/05/22 01:16:51;;;;;;;;;6.33;5.00;;;;;18.24;59.43;101075.59;5018222;28;45477;-58
2022/05/22 01:19:21;;;;;;;;;6.33;6.33;;;;;18.23;59.80;101069.34;5030376;28;45423;-57
2022/05/22 01:22:12;;;;;;;;;5.33;5.33;;;;;18.15;60.04;101077.16;5025867;28;45182;-59
2022/05/22 01:24:38;;;;;;;;;7.33;6.33;;;;;18.08;59.42;101073.25;5025995;28;45579;-61
2022/05/22 01:27:07;;;;;;;;;4.00;4.00;;;;;18.12;59.92;101074.72;5053406;28;45378;-67
2022/05/22 01:29:32;;;;;;;;;6.33;4.00;;;;;18.12;59.77;101076.56;5036101;28;45575;-61
2022/05/22 01:31:58;;;;;;;;;20.67;18.33;;;;;18.10;59.65;101075.81;5038097;28;45533;-67
2022/05/22 01:34:24;;;;;;;;;8.00;7.00;;;;;18.12;60.01;101066.66;5025055;28;46179;-59
2022/05/22 01:36:49;;;;;;;;;7.33;7.33;;;;;18.17;59.75;101069.81;5021120;28;45479;-65
2022/05/22 01:39:15;;;;;;;;;7.33;5.67;;;;;18.17;59.69;101067.13;5018200;28;47197;-67
2022/05/22 01:41:41;;;;;;;;;7.00;6.00;;;;;18.16;59.53;101062.72;5020782;28;45826;-58
2022/05/22 01:44:06;;;;;;;;;6.67;6.67;;;;;18.12;59.81;101060.41;5037980;28;45655;-57
2022/05/22 01:46:32;;;;;;;;;6.33;6.33;;;;;18.14;59.55;101070.06;5045683;28;45460;-62
2022/05/22 01:48:58;;;;;;;;;6.33;6.33;;;;;18.13;59.92;101062.13;5031923;28;45462;-60
2022/05/22 01:51:25;;;;;;;;;10.00;7.33;;;;;18.11;59.78;101070.34;5001854;28;45493;-61
2022/05/22 01:53:51;;;;;;;;;7.00;6.00;;;;;18.10;59.43;101052.47;5017672;28;46563;-64
2022/05/22 01:56:16;;;;;;;;;6.33;6.00;;;;;18.11;59.56;101054.19;5021235;28;45557;-56
2022/05/22 01:58:42;;;;;;;;;5.67;5.67;;;;;18.11;59.55;101058.72;5037383;28;45268;-62
2022/05/22 02:01:08;;;;;;;;;7.00;7.00;;;;;18.16;59.58;101067.25;5036540;28;45250;-63
2022/05/22 02:03:34;;;;;;;;;9.00;5.33;;;;;18.12;59.90;101061.28;5031078;28;45525;-62
2022/05/22 02:06:00;;;;;;;;;6.00;6.00;;;;;18.11;59.73;101059.56;5018498;28;45442;-67
2022/05/22 02:08:26;;;;;;;;;6.00;6.00;;;;;18.13;59.17;101057.59;5025995;28;45638;-58
2022/05/22 02:11:01;;;;;;;;;5.67;5.67;;;;;18.13;59.15;101051.38;5019541;28;45607;-54
2022/05/22 02:13:33;;;;;;;;;5.67;5.67;;;;;18.14;59.06;101064.69;5037122;28;45377;-58
2022/05/22 02:15:59;;;;;;;;;6.00;6.00;;;;;18.15;59.52;101060.16;5034165;28;46372;-51
2022/05/22 02:18:24;;;;;;;;;8.67;5.33;;;;;18.14;58.85;101053.94;5034943;28;45418;-60
2022/05/22 02:20:50;;;;;;;;;6.00;4.00;;;;;18.14;58.98;101062.00;5031271;28;45633;-60
2022/05/22 02:23:17;;;;;;;;;6.00;6.00;;;;;18.16;58.84;101062.72;5019191;28;46193;-61
2022/05/22 02:25:46;;;;;;;;;10.33;6.67;;;;;18.21;58.72;101059.66;5030816;28;45421;-57
2022/05/22 02:28:14;;;;;;;;;8.67;7.67;;;;;18.19;59.27;101070.56;5030444;28;45485;-62
2022/05/22 02:30:42;;;;;;;;;6.00;6.00;;;;;18.15;59.36;101065.56;5029678;28;45655;-64
2022/05/22 02:33:07;;;;;;;;;6.00;6.00;;;;;18.16;59.27;101061.88;5016039;28;46055;-63
2022/05/22 02:35:33;;;;;;;;;6.00;6.00;;;;;18.07;59.36;101058.06;5020934;28;45414;-64
2022/05/22 02:37:59;;;;;;;;;7.00;7.00;;;;;18.06;59.36;101056.38;5037204;28;45458;-61
2022/05/22 02:40:28;;;;;;;;;9.67;9.00;;;;;18.04;59.94;101065.53;5033295;28;45663;-53
2022/05/22 02:42:54;;;;;;;;;11.67;9.33;;;;;17.93;60.18;101066.41;5020602;28;45491;-60
2022/05/22 02:45:25;;;;;;;;;7.33;7.33;;;;;17.83;60.72;101065.41;5036131;28;45438;-60
2022/05/22 02:47:51;;;;;;;;;12.00;9.00;;;;;17.77;61.05;101079.34;5035203;28;45259;-66
2022/05/22 02:50:20;;;;;;;;;6.00;6.00;;;;;17.73;61.03;101081.44;5018775;28;45363;-62
2022/05/22 02:52:45;;;;;;;;;7.33;6.67;;;;;17.64;61.48;101074.03;5018326;28;47478;-59
2022/05/22 02:55:11;;;;;;;;;7.33;6.67;;;;;17.55;61.70;101083.66;5019235;28;45370;-59
2022/05/22 02:57:39;;;;;;;;;9.67;6.00;;;;;17.55;61.35;101083.66;5018742;28;45341;-58
2022/05/22 03:00:11;;;;;;;;;7.00;7.00;;;;;17.59;61.22;101074.41;5036767;28;45462;-60
2022/05/22 03:02:36;;;;;;;;;10.00;9.67;;;;;17.64;61.23;101077.59;5034608;28;46092;-62
2022/05/22 03:05:02;;;;;;;;;13.00;11.00;;;;;17.69;61.11;101080.78;5024798;28;45493;-61
2022/05/22 03:07:28;;;;;;;;;13.00;12.67;;;;;17.71;61.28;101083.41;5052088;28;45362;-64
2022/05/22 03:09:53;;;;;;;;;16.67;12.33;;;;;17.71;60.75;101078.00;5019903;28;45462;-63
2022/05/22 03:12:23;;;;;;;;;11.33;10.00;;;;;17.65;60.93;101079.28;5016768;28;45979;-58
2022/05/22 03:14:51;;;;;;;;;12.67;10.67;;;;;17.64;61.02;101077.59;5031203;28;45489;-61
2022/05/22 03:17:17;;;;;;;;;22.00;16.00;;;;;17.63;61.30;101077.72;5052202;28;45507;-59
2022/05/22 03:19:42;;;;;;;;;15.33;14.33;;;;;17.60;61.10;101064.50;5032492;28;45668;-62
2022/05/22 03:22:10;;;;;;;;;18.00;18.00;;;;;17.63;60.84;101061.56;5036083;28;45447;-59
2022/05/22 03:24:36;;;;;;;;;15.33;14.67;;;;;17.68;60.69;101057.56;5035477;28;45359;-59
2022/05/22 03:27:10;;;;;;;;;15.00;12.33;;;;;17.71;60.66;101056.50;5035455;28;45341;-63
2022/05/22 03:29:36;;;;;;;;;20.67;15.00;;;;;17.72;60.76;101049.28;5034861;28;45473;-61
2022/05/22 03:32:03;;;;;;;;;16.33;16.00;;;;;17.76;60.84;101037.28;5017832;28;45486;-60
2022/05/22 03:34:28;;;;;;;;;16.33;16.00;;;;;17.76;60.68;101039.97;5015586;28;45345;-62
2022/05/22 03:36:54;;;;;;;;;14.33;14.33;;;;;17.72;60.82;101027.75;5015006;28;45435;-61
2022/05/22 03:39:20;;;;;;;;;17.67;15.00;;;;;17.77;60.73;101023.72;5014853;28;45509;-57
2022/05/22 03:41:46;;;;;;;;;12.33;12.33;;;;;17.79;60.81;101023.59;5029343;28;45504;-58
2022/05/22 03:44:11;;;;;;;;;14.00;11.67;;;;;17.78;60.52;101029.94;5036126;28;45733;-59
2022/05/22 03:46:37;;;;;;;;;11.00;10.00;;;;;17.77;60.59;101034.47;5034522;28;45322;-58
2022/05/22 03:49:02;;;;;;;;;11.00;9.00;;;;;17.76;60.75;101029.22;5031969;28;46135;-59
2022/05/22 03:51:28;;;;;;;;;11.33;10.33;;;;;17.76;60.85;101032.75;5020122;28;45498;-62
2022/05/22 03:53:54;;;;;;;;;8.67;8.33;;;;;17.74;60.93;101039.25;5024223;28;45601;-66
2022/05/22 03:56:20;;;;;;;;;13.00;12.67;;;;;17.67;61.19;101028.06;5016207;28;45193;-63
2022/05/22 03:58:47;;;;;;;;;15.67;10.67;;;;;17.69;61.21;101036.91;5031870;28;45424;-57
2022/05/22 04:01:13;;;;;;;;;13.33;10.00;;;;;17.71;60.89;101032.28;5039677;28;45274;-58
2022/05/22 04:03:39;;;;;;;;;10.67;9.00;;;;;17.65;61.56;101030.03;5038208;28;45344;-59
2022/05/22 04:06:07;;;;;;;;;10.00;10.00;;;;;17.56;61.30;101026.22;5022213;28;45589;-63
2022/05/22 04:08:33;;;;;;;;;11.33;10.00;;;;;17.48;61.47;101017.91;5019513;28;45531;-60
2022/05/22 04:11:08;;;;;;;;;11.00;8.67;;;;;17.47;61.22;101010.81;5030582;28;46345;-61
2022/05/22 04:13:34;;;;;;;;;9.00;9.00;;;;;17.44;61.24;101000.28;5038863;28;45324;-61
2022/05/22 04:15:59;;;;;;;;;8.00;8.00;;;;;17.45;61.22;101002.03;5037890;28;45738;-60
2022/05/22 04:18:25;;;;;;;;;8.00;8.00;;;;;17.42;61.67;101004.06;5038432;28;45529;-61
2022/05/22 04:20:51;;;;;;;;;8.33;8.33;;;;;17.34;61.71;101004.69;5039377;28;45358;-59
2022/05/22 04:26:00;;;;;;;;;9.00;9.00;;;;;17.31;61.37;101000.38;5038096;28;45299;-59
2022/05/22 04:28:27;;;;;;;;;10.00;8.00;;;;;17.25;61.90;101000.88;5033073;28;45669;-59
2022/05/22 04:30:52;;;;;;;;;8.00;8.00;;;;;17.29;61.63;101006.84;5038151;28;46274;-60
2022/05/22 04:33:18;;;;;;;;;11.00;7.67;;;;;17.29;61.97;101001.47;5022925;28;45336;-55
2022/05/22 04:35:44;;;;;;;;;9.67;8.67;;;;;17.32;62.19;101009.34;5030883;28;45366;-63
2022/05/22 04:38:11;;;;;;;;;7.67;7.00;;;;;17.31;61.27;101011.13;5019525;28;45570;-63
2022/05/22 04:40:41;;;;;;;;;7.00;7.00;;;;;17.36;61.36;101006.28;5036235;28;45468;-58
2022/05/22 04:43:07;;;;;;;;;11.00;7.00;;;;;17.44;61.32;101000.28;5033619;28;45247;-62
2022/05/22 04:45:33;;;;;;;;;8.33;7.00;;;;;17.48;60.95;101007.16;5023566;28;45458;-56
2022/05/22 04:47:59;;;;;;;;;7.67;6.00;;;;;17.53;61.32;101012.16;5033829;28;45244;-58
2022/05/22 04:50:25;;;;;;;;;10.33;7.67;;;;;17.56;60.80;101009.22;5033137;28;45857;-56
2022/05/22 04:52:50;;;;;;;;;10.67;9.00;;;;;17.57;61.05;101011.78;5036037;28;45515;-58
2022/05/22 04:55:16;;;;;;;;;15.33;7.67;;;;;17.57;60.95;101022.53;5036196;28;45421;-57
2022/05/22 04:57:41;;;;;;;;;7.67;6.67;;;;;17.58;60.88;101020.75;5037716;28;45511;-61
2022/05/22 05:00:10;;;;;;;;;9.00;9.00;;;;;17.62;60.60;101015.00;5031000;28;45985;-64
2022/05/22 05:02:37;;;;;;;;;8.33;8.33;;;;;17.67;60.64;101026.22;5023390;28;45355;-60
2022/05/22 05:05:05;;;;;;;;;9.67;8.00;;;;;17.68;60.70;101029.78;5023264;28;45457;-63
2022/05/22 05:07:31;;;;;;;;;9.00;7.67;;;;;17.57;60.81;101036.00;5037215;28;45482;-59
2022/05/22 05:09:57;;;;;;;;;8.33;7.67;;;;;17.57;60.78;101035.13;5036634;28;45510;-64
2022/05/22 05:12:22;;;;;;;;;10.67;8.33;;;;;17.56;60.90;101031.59;5038329;28;45343;-56
2022/05/22 05:14:48;;;;;;;;;7.00;7.00;;;;;17.59;60.80;101017.06;5035785;28;45347;-67
2022/05/22 05:17:16;;;;;;;;;7.33;7.33;;;;;17.67;60.79;101017.31;5029396;28;45307;-64
2022/05/22 05:19:42;;;;;;;;;13.33;10.00;;;;;17.72;60.27;101019.69;5037936;28;45283;-60
2022/05/22 05:22:08;;;;;;;;;13.00;12.00;;;;;17.82;60.16;101026.88;5033772;28;45236;-63
2022/05/22 05:24:33;;;;;;;;;10.00;10.00;;;;;17.86;60.02;101027.50;5028397;28;45446;-63
2022/05/22 05:26:59;;;;;;;;;7.00;7.00;;;;;17.83;60.06;101020.53;5018759;28;45175;-65
2022/05/22 05:29:25;;;;;;;;;9.67;9.67;;;;;17.88;59.87;101020.16;5030035;28;45437;-68
2022/05/22 05:31:51;;;;;;;;;8.67;8.33;;;;;17.94;59.86;101028.59;5027091;28;45629;-62
2022/05/22 05:34:16;;;;;;;;;8.67;8.00;;;;;17.91;59.93;101019.91;5017968;28;45334;-61
2022/05/22 05:36:42;;;;;;;;;7.67;7.67;;;;;18.00;59.96;101021.88;5024704;28;45913;-61
2022/05/22 05:39:08;;;;;;;;;11.67;10.00;;;;;17.96;60.01;101029.31;5034916;28;45479;-56
2022/05/22 05:41:37;;;;;;;;;8.67;7.33;;;;;17.87;60.08;101019.31;5039278;28;45471;-60
2022/05/22 05:44:07;;;;;;;;;10.00;10.00;;;;;17.87;60.13;101030.09;5033548;28;45548;-58
2022/05/22 05:46:37;;;;;;;;;9.67;8.33;;;;;17.87;60.29;101038.16;5033206;28;45318;-66
2022/05/22 05:49:04;;;;;;;;;10.67;8.67;;;;;17.89;60.05;101032.66;5034911;28;47639;-64
2022/05/22 05:51:29;;;;;;;;;12.00;10.33;;;;;17.97;59.96;101040.97;5033220;28;45273;-67
2022/05/22 05:53:55;;;;;;;;;7.00;7.00;;;;;18.00;59.76;101037.19;5037133;28;45640;-64
2022/05/22 05:56:21;;;;;;;;;9.33;9.33;;;;;18.00;59.83;101034.47;5036686;28;45553;-67
2022/05/22 05:58:48;;;;;;;;;10.00;8.00;;;;;18.02;59.82;101021.75;5036633;28;45433;-64
2022/05/22 06:01:15;;;;;;;;;12.00;9.33;;;;;18.14;59.53;101028.84;5031852;28;46963;-60
2022/05/22 06:03:41;;;;;;;;;9.67;9.00;;;;;18.22;59.07;101013.75;5017398;28;45260;-64
2022/05/22 06:06:13;;;;;;;;;11.33;11.33;;;;;18.27;59.08;101011.56;5027863;28;45569;-64
2022/05/22 06:08:39;;;;;;;;;14.00;9.67;;;;;18.40;58.84;101007.88;5027499;28;45990;-66
2022/05/22 06:11:05;;;;;;;;;9.00;8.67;;;;;18.44;58.33;101014.72;5049145;28;45385;-60
2022/05/22 06:13:31;;;;;;;;;10.67;10.67;;;;;18.47;58.46;101006.38;5028421;28;45275;-59
2022/05/22 06:15:56;;;;;;;;;9.67;9.67;;;;;18.53;58.06;101000.50;5057833;28;45345;-64
2022/05/22 06:18:22;;;;;;;;;9.00;9.00;;;;;18.57;58.32;100986.63;5042892;28;46663;-65
2022/05/22 06:20:47;;;;;;;;;6.33;5.00;;;;;18.69;57.69;100994.72;5033118;28;45418;-62
2022/05/22 06:23:13;;;;;;;;;11.00;9.00;;;;;18.72;57.86;100971.06;5015667;28;45314;-61
2022/05/22 06:25:44;;;;;;;;;14.00;11.00;;;;;18.76;57.79;100972.53;5013375;28;45421;-64
2022/05/22 06:28:10;;;;;;;;;12.00;10.00;;;;;18.80;57.13;100959.63;5016961;28;46121;-62
2022/05/22 06:30:36;;;;;;;;;8.00;8.00;;;;;18.80;57.00;100967.72;5035626;28;45352;-62
2022/05/22 06:33:07;;;;;;;;;11.33;11.33;;;;;18.84;57.32;100967.31;5033441;28;45431;-62
2022/05/22 06:35:33;;;;;;;;;7.00;6.33;;;;;18.91;57.29;100956.03;5033168;28;45476;-63
2022/05/22 06:37:58;;;;;;;;;12.67;10.67;;;;;18.98;56.87;100946.44;5035838;28;46531;-61
2022/05/22 06:40:23;;;;;;;;;9.67;9.67;;;;;19.07;56.61;100937.56;5030503;28;45376;-62
2022/05/22 06:42:49;;;;;;;;;13.67;10.00;;;;;19.07;56.13;100930.31;5022912;28;45346;-60
2022/05/22 06:45:16;;;;;;;;;11.00;11.00;;;;;19.14;56.64;100927.94;5032263;28;45508;-63
2022/05/22 06:47:44;;;;;;;;;9.00;9.00;;;;;19.20;56.25;100919.34;5031972;28;46264;-62
2022/05/22 06:50:16;;;;;;;;;9.00;9.00;;;;;19.22;56.16;100914.66;5018773;28;46088;-58
2022/05/22 06:52:41;;;;;;;;;10.67;9.00;;;;;19.24;55.61;100914.53;5032919;28;45486;-62
2022/05/22 06:55:08;;;;;;;;;10.00;9.00;;;;;19.29;55.43;100912.28;5035720;28;45329;-60
2022/05/22 06:57:33;;;;;;;;;5.67;5.67;;;;;19.35;55.24;100917.13;5023371;28;46087;-65
2022/05/22 06:59:59;;;;;;;;;9.00;8.00;;;;;19.39;54.97;100927.50;5037755;28;45605;-59
2022/05/22 07:02:29;;;;;;;;;9.33;8.33;;;;;19.47;54.74;100917.91;5035593;28;45383;-62
2022/05/22 07:04:59;;;;;;;;;11.00;8.00;;;;;19.61;54.50;100912.16;5019870;28;45320;-63
2022/05/22 07:07:25;;;;;;;;;10.33;10.33;;;;;19.71;54.25;100913.06;5016425;28;46175;-63
2022/05/22 07:09:51;;;;;;;;;11.00;8.00;;;;;19.77;53.59;100920.59;5016365;28;45409;-67
2022/05/22 07:12:18;;;;;;;;;6.33;6.33;;;;;19.83;53.68;100921.91;5021444;28;45406;-64
2022/05/22 07:14:43;;;;;;;;;9.67;8.33;;;;;19.94;53.34;100914.56;5016515;28;45378;-60
2022/05/22 07:17:11;;;;;;;;;11.67;8.00;;;;;20.04;53.28;100915.41;5042697;28;45507;-61
2022/05/22 07:19:37;;;;;;;;;7.67;7.67;;;;;20.16;52.73;100923.41;5036082;28;45342;-64
2022/05/22 07:22:07;;;;;;;;;5.33;5.33;;;;;20.23;52.07;100920.00;5032247;28;45495;-62
2022/05/22 07:24:33;;;;;;;;;7.00;6.67;;;;;20.26;51.89;100913.47;5052188;28;45429;-63
2022/05/22 07:26:59;;;;;;;;;6.00;6.00;;;;;20.27;51.18;100917.88;5033591;28;45589;-63
2022/05/22 07:29:24;;;;;;;;;4.67;4.67;;;;;20.22;52.02;100895.84;5035571;28;45882;-61
2022/05/22 07:31:50;;;;;;;;;7.00;6.00;;;;;20.19;51.21;100847.53;5025914;28;45536;-61
2022/05/22 07:34:16;;;;;;;;;6.00;6.00;;;;;20.15;51.44;100862.28;5024888;28;45363;-59
2022/05/22 07:36:41;;;;;;;;;5.00;5.00;;;;;20.10;50.82;100913.16;5017458;28;46053;-56
2022/05/22 07:39:07;;;;;;;;;7.00;7.00;;;;;20.06;51.43;100941.44;5019245;28;45524;-59
2022/05/22 07:41:32;;;;;;;;;8.00;6.00;;;;;20.09;51.93;100912.31;5037744;28;45550;-59
2022/05/22 07:43:59;;;;;;;;;7.67;6.00;;;;;20.24;51.57;100915.47;5034415;28;45641;-57
2022/05/22 07:46:25;;;;;;;;;8.00;5.33;;;;;20.22;51.69;100909.34;5029049;28;46421;-59
2022/05/22 07:48:50;;;;;;;;;5.67;3.00;;;;;20.34;51.37;100900.13;5030151;28;45553;-60
2022/05/22 07:51:16;;;;;;;;;8.00;7.00;;;;;20.45;51.16;100897.31;5051258;28;45325;-59
2022/05/22 07:53:43;;;;;;;;;5.33;5.33;;;;;20.64;50.40;100896.44;5016436;28;47282;-57
2022/05/22 07:56:08;;;;;;;;;6.00;5.67;;;;;20.81;50.31;100886.75;5034687;28;46100;-58
2022/05/22 07:58:34;;;;;;;;;5.00;5.00;;;;;20.91;49.57;100893.84;5035529;28;45350;-57
2022/05/22 08:01:00;;;;;;;;;7.00;5.00;;;;;20.91;50.25;100890.28;5039116;28;45620;-58
2022/05/22 08:03:27;;;;;;;;;5.33;5.33;;;;;20.99;49.55;100874.19;5043919;28;45476;-58
2022/05/22 08:05:54;;;;;;;;;2.00;2.00;;;;;21.08;48.90;100873.31;5020855;28;47674;-56
2022/05/22 08:08:20;;;;;;;;;8.00;8.00;;;;;21.21;49.17;100860.31;5034135;28;45419;-59
2022/05/22 08:10:46;;;;;;;;;3.00;3.00;;;;;21.39;48.64;100860.44;5033533;28;45600;-58
2022/05/22 08:13:13;;;;;;;;;5.00;5.00;;;;;21.49;48.01;100860.38;5033645;28;45454;-65
2022/05/22 08:15:40;;;;;;;;;6.67;5.00;;;;;21.52;47.91;100843.84;5018434;28;45553;-63
2022/05/22 08:18:07;;;;;;;;;7.00;6.00;;;;;21.69;46.61;100853.00;5033448;28;45398;-57
2022/05/22 08:20:34;;;;;;;;;3.50;3.50;;;;;21.83;46.80;100827.25;5028778;28;45552;-59
2022/05/22 08:23:04;;;;;;;;;6.00;4.33;;;;;21.97;45.62;100822.16;5026657;28;45246;-57
2022/05/22 08:25:30;;;;;;;;;3.00;3.00;;;;;22.21;45.34;100818.03;5025995;28;45958;-58
2022/05/22 08:27:57;;;;;;;;;4.50;3.25;;;;;22.51;45.10;100803.19;5028195;28;45488;-58
2022/05/22 08:30:25;;;;;;;;;2.75;2.75;;;;;22.78;44.00;100794.91;5030111;28;45462;-56
2022/05/22 08:32:51;;;;;;;;;3.75;3.75;;;;;23.04;43.83;100800.34;5024877;28;46169;-57
2022/05/22 08:35:23;;;;;;;;;4.75;3.25;;;;;23.23;42.60;100810.97;5028615;28;46915;-59
2022/05/22 08:37:49;;;;;;;;;3.00;3.00;;;;;23.40;42.17;100805.59;5019140;28;45407;-57
2022/05/22 08:40:18;;;;;;;;;2.25;2.25;;;;;23.43;43.02;100806.13;5039293;28;45570;-57
2022/05/22 08:42:49;;;;;;;;;5.00;5.00;;;;;23.51;42.75;100814.31;5022063;28;45498;-60
2022/05/22 08:45:22;;;;;;;;;5.00;3.00;;;;;23.66;42.26;100824.56;5018706;28;46439;-58
2022/05/22 08:48:20;;;;;;;;;5.00;3.25;;;;;23.77;41.89;100819.69;5027496;28;45429;-58
2022/05/22 08:50:48;;;;;;;;;3.50;3.50;;;;;23.89;42.08;100820.22;5037772;28;45996;-56
2022/05/22 08:53:20;;;;;;;;;3.75;3.75;;;;;24.00;41.37;100821.78;5036947;28;45623;-56
2022/05/22 08:58:57;;;;;;;;;3.00;3.00;;;;;24.12;40.93;100807.69;5028994;28;45754;-55
2022/05/22 09:02:01;;;;;;;;;3.40;3.00;;;;;24.15;41.48;100811.94;5030116;28;45473;-57
2022/05/22 09:04:43;;;;;;;;;6.00;3.75;;;;;24.29;40.84;100808.53;5025099;28;45703;-60
2022/05/22 09:07:20;;;;;;;;;1.00;1.00;;;;;24.33;40.98;100811.78;5017963;28;45544;-62
2022/05/22 09:09:57;;;;;;;;;4.00;2.00;;;;;24.40;40.50;100793.78;5023346;28;45465;-57
2022/05/22 09:12:25;;;;;;;;;2.75;2.75;;;;;24.45;38.90;100790.56;5032797;28;45650;-49
2022/05/22 09:15:11;;;;;;;;;0.00;0.00;;;;;24.41;38.68;100790.06;5025498;28;45790;-50
2022/05/22 09:17:56;;;;;;;;;4.40;3.00;;;;;24.46;38.90;100795.81;5050018;28;46303;-62
2022/05/22 09:20:34;;;;;;;;;3.60;1.80;;;;;24.53;38.74;100783.25;5034147;28;46455;-56
2022/05/22 09:23:33;;;;;;;;;2.60;2.60;;;;;24.75;38.51;100789.00;5027739;28;45419;-52
2022/05/22 09:26:25;;;;;;;;;5.25;2.00;;;;;25.04;39.00;100791.16;5019253;28;45421;-61
2022/05/22 09:29:28;;;;;;;;;2.00;2.00;;;;;25.08;38.97;100789.78;5021202;28;45560;-67
2022/05/22 09:32:08;;;;;;;;;2.40;2.40;;;;;25.14;38.25;100776.34;5021320;28;45414;-69
2022/05/22 09:35:04;;;;;;;;;2.00;2.00;;;;;25.26;37.97;100774.06;5020793;28;45244;-63
2022/05/22 09:37:53;;;;;;;;;4.25;3.50;;;;;25.44;37.46;100766.50;5021683;28;45200;-65
2022/05/22 09:40:35;;;;;;;;;3.00;3.00;;;;;25.65;36.17;100756.81;5019464;28;45480;-66
2022/05/22 09:43:12;;;;;;;;;2.00;2.00;;;;;25.67;37.15;100754.78;5020757;28;45331;-65
2022/05/22 09:46:02;;;;;;;;;2.40;2.40;;;;;25.68;37.39;100757.34;5023363;28;45493;-66
2022/05/22 09:48:50;;;;;;;;;3.00;2.50;;;;;25.57;35.93;100749.56;5034731;28;45526;-66
2022/05/22 09:51:36;;;;;;;;;3.20;3.20;;;;;25.39;36.73;100733.53;5039614;28;45465;-64
2022/05/22 09:54:22;;;;;;;;;1.00;1.00;;;;;25.28;36.13;100728.47;5039668;28;45845;-60
2022/05/22 09:57:25;;;;;;;;;2.00;2.00;;;;;25.18;35.88;100723.25;5040482;28;45390;-64
2022/05/22 10:00:10;;;;;;;;;3.25;3.00;;;;;25.05;36.73;100703.91;5040681;28;45504;-63
2022/05/22 10:02:49;;;;;;;;;4.00;2.25;;;;;24.95;37.76;100701.38;5033583;28;45998;-68
2022/05/22 10:05:50;;;;;;;;;2.00;2.00;;;;;24.91;38.03;100704.63;5019073;28;45377;-63
2022/05/22 10:08:51;;;;;;;;;2.00;2.00;;;;;24.85;38.24;100702.59;5019265;28;45480;-62
2022/05/22 10:11:27;;;;;;;;;4.00;2.50;;;;;24.78;37.48;100686.13;5017894;28;45352;-62
2022/05/22 10:14:22;;;;;;;;;3.00;3.00;;;;;24.66;37.65;100682.09;5018709;28;45288;-65
2022/05/22 10:17:03;;;;;;;;;1.80;1.80;;;;;24.59;37.68;100673.78;5002112;28;45266;-58
2022/05/22 10:19:56;;;;;;;;;3.40;2.40;;;;;24.56;37.24;100682.28;5025173;28;45394;-58
2022/05/22 10:22:53;;;;;;;;;2.00;2.00;;;;;24.46;38.82;100678.91;5038761;28;45412;-66
2022/05/22 10:25:42;;;;;;;;;2.00;2.00;;;;;24.42;38.29;100691.16;5038705;28;45319;-64
2022/05/22 10:28:37;;;;;;;;;6.40;4.00;;;;;24.29;38.68;100699.81;5037386;28;45254;-64
2022/05/22 10:31:44;;;;;;;;;3.00;3.00;;;;;24.16;38.73;100674.19;5038726;28;45307;-62
2022/05/22 10:34:14;;;;;;;;;3.00;3.00;;;;;24.12;38.89;100663.69;5014269;28;45615;-64
2022/05/22 10:36:50;;;;;;;;;3.50;3.50;;;;;24.03;39.02;100659.25;5019419;28;45767;-67
2022/05/22 10:39:16;;;;;;;;;3.40;3.40;;;;;23.99;40.20;100646.22;5019172;28;45447;-67
2022/05/22 10:44:35;;;;;;;;;2.00;2.00;;;;;24.00;40.32;100618.88;5038301;28;45461;-57
2022/05/22 10:47:02;;;;;;;;;2.00;2.00;;;;;23.84;40.53;100613.47;5052937;28;46446;-63
2022/05/22 10:49:43;;;;;;;;;5.00;4.00;;;;;23.75;40.87;100606.34;5037420;28;45369;-63
2022/05/22 10:52:14;;;;;;;;;1.75;1.75;;;;;23.66;41.03;100610.06;5036269;28;45407;-62
2022/05/22 10:54:55;;;;;;;;;4.75;4.00;;;;;23.61;40.83;100615.16;5037478;28;45288;-59
2022/05/22 10:57:29;;;;;;;;;3.00;3.00;;;;;23.57;40.79;100605.59;5038283;28;45768;-63
2022/05/22 10:59:56;;;;;;;;;3.00;3.00;;;;;23.48;40.43;100592.06;5036268;28;45431;-61
2022/05/22 11:02:27;;;;;;;;;4.00;4.00;;;;;23.45;41.22;100594.28;5036661;28;45407;-66
2022/05/22 11:04:54;;;;;;;;;2.00;2.00;;;;;23.34;41.18;100606.31;5038271;28;45408;-68
2022/05/22 11:07:43;;;;;;;;;3.00;3.00;;;;;23.27;41.90;100605.25;5035761;28;46036;-68
2022/05/22 11:10:18;;;;;;;;;4.00;4.00;;;;;23.19;40.92;100592.56;5037416;28;45422;-63
2022/05/22 11:12:44;;;;;;;;;3.00;3.00;;;;;23.13;41.05;100603.22;5037954;28;45326;-62
2022/05/22 11:15:15;;;;;;;;;3.50;3.50;;;;;23.09;41.50;100612.72;5037516;28;45544;-64
2022/05/22 11:17:41;;;;;;;;;3.75;3.75;;;;;23.06;41.81;100613.03;5052560;28;46436;-67
2022/05/22 11:20:23;;;;;;;;;3.00;3.00;;;;;23.03;42.04;100594.38;5032646;28;45229;-63
2022/05/22 11:22:58;;;;;;;;;5.00;5.00;;;;;22.99;41.89;100585.72;5032161;28;45465;-63
2022/05/22 11:25:29;;;;;;;;;4.00;3.75;;;;;22.93;43.00;100603.50;5015966;28;45520;-60
2022/05/22 11:28:07;;;;;;;;;5.00;5.00;;;;;22.91;43.47;100610.09;5016819;28;45631;-61
2022/05/22 11:30:52;;;;;;;;;4.00;3.00;;;;;22.88;43.08;100607.72;5016792;28;45367;-60
2022/05/22 11:33:40;;;;;;;;;3.00;2.00;;;;;22.83;42.66;100602.81;5016975;28;45422;-60
2022/05/22 11:36:21;;;;;;;;;4.00;4.00;;;;;22.82;43.10;100590.22;5034262;28;46367;-57
2022/05/22 11:38:56;;;;;;;;;4.75;3.50;;;;;22.86;43.29;100591.63;5034946;28;45389;-63
2022/05/22 11:41:38;;;;;;;;;5.00;5.00;;;;;22.90;43.47;100592.97;5029666;28;45444;-57
2022/05/22 11:44:40;;;;;;;;;8.50;4.00;;;;;22.90;44.09;100592.97;5023920;28;45523;-57